Time;durP1;ratioP1;P1;durP2;ratioP2;P2;SDS_P1;SDS_P2;PMS_P1;PMS_P2;Temp;Humidity;BMP_temperature;BMP_pressure;BME280_temperature;BME280_humidity;BME280_pressure;Samples;Min_cycle;Max_cycle;Signal;HPM_P1;HPM_P2
2023/04/20 00:01:55;;;;;;;3.27;2.90;;;;;;;20.50;56.30;97421.53;4963264;28;20231;-26
2023/04/20 00:04:22;;;;;;;3.87;3.33;;;;;;;20.50;56.40;97413.00;4966945;28;20256;-26
2023/04/20 00:06:50;;;;;;;3.57;3.07;;;;;;;20.49;56.11;97407.03;4967832;28;20605;-26
2023/04/20 00:09:17;;;;;;;4.37;3.03;;;;;;;20.50;56.00;97411.31;4958080;28;20232;-27
2023/04/20 00:11:44;;;;;;;3.07;2.87;;;;;;;20.49;55.80;97409.56;4956678;29;20209;-26
2023/04/20 00:14:11;;;;;;;3.63;3.20;;;;;;;20.49;56.36;97401.91;4956630;28;20283;-28
2023/04/20 00:16:37;;;;;;;3.37;3.07;;;;;;;20.47;55.89;97398.47;4957531;28;20228;-28
2023/04/20 00:19:06;;;;;;;3.13;2.70;;;;;;;20.48;56.05;97402.75;4967896;28;20210;-27
2023/04/20 00:21:33;;;;;;;3.70;3.17;;;;;;;20.46;55.91;97388.22;4960973;28;20220;-28
2023/04/20 00:24:06;;;;;;;4.23;3.30;;;;;;;20.49;55.86;97385.75;4971987;28;20768;-27
2023/04/20 00:26:32;;;;;;;2.97;2.67;;;;;;;20.41;55.79;97367.66;4961932;28;20310;-29
2023/04/20 00:28:59;;;;;;;3.27;2.97;;;;;;;20.48;56.06;97386.56;4956261;28;20295;-29
2023/04/20 00:31:26;;;;;;;4.23;3.20;;;;;;;20.47;55.20;97383.16;4964742;28;20210;-30
2023/04/20 00:33:52;;;;;;;4.47;3.10;;;;;;;20.47;55.95;97380.59;4964053;28;20280;-29
2023/04/20 00:36:19;;;;;;;2.73;2.53;;;;;;;20.47;55.65;97380.59;4961259;28;20231;-30
2023/04/20 00:38:46;;;;;;;3.73;2.63;;;;;;;20.47;55.65;97374.63;4958502;28;20211;-29
2023/04/20 00:41:12;;;;;;;3.27;2.93;;;;;;;20.45;55.46;97372.00;4957807;28;20239;-29
2023/04/20 00:43:49;;;;;;;3.40;2.80;;;;;;;20.43;55.82;97360.03;4962401;28;20383;-30
2023/04/20 00:46:15;;;;;;;3.33;3.03;;;;;;;20.46;55.92;97355.88;4957940;28;20223;-30
2023/04/20 00:48:42;;;;;;;3.87;2.80;;;;;;;20.33;55.61;97329.91;4962452;28;20636;-29
2023/04/20 00:51:08;;;;;;;3.10;2.80;;;;;;;20.45;55.22;97359.25;4948390;28;20208;-29
2023/04/20 00:53:35;;;;;;;2.77;2.57;;;;;;;20.44;55.89;97351.53;4972853;28;20710;-29
2023/04/20 00:56:02;;;;;;;3.03;2.73;;;;;;;20.45;55.73;97351.59;4961253;28;20223;-31
2023/04/20 00:58:28;;;;;;;2.97;2.70;;;;;;;20.44;55.87;97343.88;4949536;28;20212;-29
2023/04/20 01:00:55;;;;;;;4.67;3.17;;;;;;;20.44;55.94;97337.09;4956000;28;20299;-29
2023/04/20 01:03:22;;;;;;;3.87;2.83;;;;;;;20.40;55.65;97324.22;4955331;28;20567;-31
2023/04/20 01:05:49;;;;;;;3.20;2.77;;;;;;;20.43;55.84;97334.50;4962166;28;20204;-29
2023/04/20 01:08:15;;;;;;;3.10;2.63;;;;;;;20.44;55.59;97337.09;4944211;29;20242;-29
2023/04/20 01:10:42;;;;;;;2.70;2.50;;;;;;;20.42;56.02;97331.09;4963288;28;20215;-29
2023/04/20 01:13:08;;;;;;;3.00;2.70;;;;;;;20.44;55.49;97320.91;4968857;28;20228;-31
2023/04/20 01:15:35;;;;;;;3.20;3.00;;;;;;;20.43;55.54;97311.53;4962837;28;20203;-29
2023/04/20 01:18:02;;;;;;;3.20;2.50;;;;;;;20.39;55.73;97308.03;4940994;28;20652;-29
2023/04/20 01:20:29;;;;;;;3.17;2.83;;;;;;;20.41;55.57;97314.03;4960942;28;20774;-30
2023/04/20 01:22:55;;;;;;;3.10;2.80;;;;;;;20.43;55.73;97303.88;4955452;28;20196;-34
2023/04/20 01:25:22;;;;;;;3.17;2.70;;;;;;;20.43;55.69;97301.31;4965192;28;20231;-29
2023/04/20 01:27:49;;;;;;;3.53;2.60;;;;;;;20.42;55.75;97297.03;4957241;28;20227;-30
2023/04/20 01:30:16;;;;;;;3.63;2.73;;;;;;;20.43;55.61;97298.78;4956487;28;20664;-30
2023/04/20 01:32:42;;;;;;;2.60;2.40;;;;;;;20.40;55.16;97307.19;4964386;28;20287;-29
2023/04/20 01:35:09;;;;;;;3.10;2.80;;;;;;;20.42;55.78;97308.09;4963180;28;20205;-29
2023/04/20 01:37:37;;;;;;;3.27;2.23;;;;;;;20.42;55.53;97303.00;4955467;28;20283;-29
2023/04/20 01:40:05;;;;;;;2.83;2.53;;;;;;;20.42;55.79;97294.47;4944435;28;20206;-30
2023/04/20 01:42:31;;;;;;;2.83;2.63;;;;;;;20.06;55.67;97227.88;4955039;28;20663;-29
2023/04/20 01:44:58;;;;;;;3.33;3.03;;;;;;;20.41;55.72;97292.75;4954554;28;20315;-30
2023/04/20 01:47:24;;;;;;;2.93;2.57;;;;;;;20.36;55.14;97279.84;4958767;28;20232;-29
2023/04/20 01:49:51;;;;;;;2.73;2.40;;;;;;;20.41;55.59;97292.75;4957198;28;20201;-29
2023/04/20 01:52:18;;;;;;;2.73;2.53;;;;;;;20.41;55.94;97285.09;4958869;28;20200;-29
2023/04/20 01:54:44;;;;;;;3.07;2.77;;;;;;;20.41;55.71;97285.09;4954498;28;20279;-29
2023/04/20 01:57:11;;;;;;;3.67;3.00;;;;;;;20.28;55.52;97268.53;4954652;28;20221;-31
2023/04/20 01:59:37;;;;;;;2.30;2.10;;;;;;;20.42;55.19;97286.81;4956164;28;20258;-30
2023/04/20 02:02:04;;;;;;;2.50;2.30;;;;;;;20.33;55.77;97261.91;4959941;28;20207;-29
2023/04/20 02:04:31;;;;;;;2.87;2.67;;;;;;;20.41;55.79;97278.31;4957162;28;20228;-30
2023/04/20 02:06:57;;;;;;;2.70;2.37;;;;;;;20.28;55.50;97255.78;4960673;28;20216;-29
2023/04/20 02:09:24;;;;;;;2.90;2.60;;;;;;;20.34;55.57;97260.22;4944742;28;20795;-29
2023/04/20 02:11:50;;;;;;;3.00;2.70;;;;;;;20.02;55.57;97209.88;4941511;28;20216;-30
2023/04/20 02:14:17;;;;;;;2.70;2.37;;;;;;;20.41;55.85;97277.44;4954923;28;20291;-29
2023/04/20 02:16:44;;;;;;;2.97;2.77;;;;;;;20.41;55.54;97285.09;4951492;28;20231;-31
2023/04/20 02:19:11;;;;;;;2.60;2.40;;;;;;;20.35;55.27;97278.13;4961335;28;20200;-30
2023/04/20 02:21:37;;;;;;;3.00;2.60;;;;;;;20.41;54.92;97285.09;4954711;28;20295;-29
2023/04/20 02:24:05;;;;;;;3.37;3.07;;;;;;;20.36;55.34;97277.28;4954196;28;20228;-29
2023/04/20 02:26:31;;;;;;;2.90;2.60;;;;;;;20.40;55.00;97286.78;4961744;28;20228;-34
2023/04/20 02:28:58;;;;;;;2.67;2.47;;;;;;;20.34;55.38;97278.09;4947411;29;20228;-29
2023/04/20 02:31:25;;;;;;;3.30;2.77;;;;;;;20.35;55.18;97280.69;4954293;28;20204;-29
2023/04/20 02:33:51;;;;;;;2.90;2.60;;;;;;;20.39;55.37;97285.03;4956654;28;20647;-30
2023/04/20 02:36:18;;;;;;;3.20;2.53;;;;;;;20.10;55.51;97236.50;4956560;28;20228;-30
2023/04/20 02:38:45;;;;;;;3.13;2.67;;;;;;;20.40;55.18;97273.16;4955589;28;20219;-29
2023/04/20 02:41:11;;;;;;;3.17;2.87;;;;;;;20.39;55.13;97274.84;4958303;28;20235;-29
2023/04/20 02:43:38;;;;;;;2.90;2.60;;;;;;;20.38;55.47;97278.22;4955703;28;20204;-29
2023/04/20 02:46:05;;;;;;;3.00;2.80;;;;;;;20.39;55.00;97282.50;4953948;28;20602;-30
2023/04/20 02:48:31;;;;;;;2.93;2.67;;;;;;;20.36;55.39;97261.09;4944865;28;20572;-29
2023/04/20 02:50:58;;;;;;;2.77;2.40;;;;;;;20.37;54.84;97260.31;4945891;29;20252;-30
2023/04/20 02:53:24;;;;;;;3.33;2.90;;;;;;;20.33;54.62;97259.34;4953153;29;20201;-29
2023/04/20 02:55:51;;;;;;;2.80;2.60;;;;;;;20.35;55.23;97256.84;4955524;28;20212;-29
2023/04/20 02:58:17;;;;;;;2.67;2.47;;;;;;;20.38;55.45;97262.91;4965639;28;20204;-30
2023/04/20 03:00:44;;;;;;;2.50;2.30;;;;;;;20.35;54.87;97254.28;4958880;28;20199;-30
2023/04/20 03:03:11;;;;;;;2.60;2.40;;;;;;;20.38;54.94;97259.47;4959326;28;20208;-29
2023/04/20 03:05:38;;;;;;;4.33;2.60;;;;;;;20.37;55.11;97255.22;4951324;29;20711;-30
2023/04/20 03:08:05;;;;;;;2.80;2.60;;;;;;;20.33;54.98;97255.91;4953843;28;20220;-29
2023/04/20 03:10:32;;;;;;;3.10;2.80;;;;;;;20.36;55.16;97261.09;4953488;28;20228;-30
2023/04/20 03:12:59;;;;;;;2.60;2.40;;;;;;;20.36;54.91;97256.00;4957150;28;20206;-29
2023/04/20 03:15:25;;;;;;;2.70;2.50;;;;;;;20.36;55.04;97261.09;4954419;28;20222;-30
2023/04/20 03:17:52;;;;;;;3.07;2.77;;;;;;;20.35;54.74;97256.84;4954481;28;20776;-29
2023/04/20 03:20:18;;;;;;;2.77;2.57;;;;;;;20.35;55.14;97257.72;4953276;28;20219;-29
2023/04/20 03:22:45;;;;;;;2.70;2.50;;;;;;;20.35;54.98;97260.25;4953353;28;20251;-30
2023/04/20 03:25:12;;;;;;;2.57;2.37;;;;;;;20.20;54.90;97231.75;4957412;28;20248;-29
2023/04/20 03:27:38;;;;;;;2.93;2.67;;;;;;;20.35;55.32;97262.81;4953215;28;20318;-29
2023/04/20 03:30:07;;;;;;;3.00;2.80;;;;;;;20.34;55.06;97258.50;4959891;28;20202;-30
2023/04/20 03:32:33;;;;;;;2.70;2.47;;;;;;;20.29;55.01;97243.91;4955168;28;20751;-29
2023/04/20 03:35:00;;;;;;;2.80;2.60;;;;;;;20.35;54.44;97254.28;4955558;28;20193;-29
2023/04/20 03:37:27;;;;;;;2.97;2.67;;;;;;;20.35;54.79;97247.50;4951975;28;20629;-29
2023/04/20 03:39:54;;;;;;;2.80;2.50;;;;;;;20.36;55.03;97250.91;4955015;28;20204;-29
2023/04/20 03:42:20;;;;;;;2.80;2.60;;;;;;;20.34;54.83;97248.31;4968211;28;20581;-30
2023/04/20 03:44:47;;;;;;;4.20;2.70;;;;;;;20.36;54.91;97250.91;4960463;28;20303;-29
2023/04/20 03:47:13;;;;;;;2.90;2.60;;;;;;;20.35;54.78;97250.06;4952711;28;20228;-29
2023/04/20 03:49:40;;;;;;;3.00;2.70;;;;;;;20.36;54.71;97248.34;4961033;28;20655;-29
2023/04/20 03:52:06;;;;;;;3.07;2.70;;;;;;;20.34;54.73;97242.34;4954975;28;20207;-30
2023/04/20 03:54:33;;;;;;;2.87;2.67;;;;;;;20.35;54.69;97241.53;4958477;28;20205;-29
2023/04/20 03:57:01;;;;;;;2.70;2.50;;;;;;;20.30;54.39;97236.28;4958965;28;20663;-29
2023/04/20 03:59:27;;;;;;;3.20;2.90;;;;;;;20.36;54.33;97249.22;4952790;28;20235;-29
2023/04/20 04:01:54;;;;;;;2.93;2.73;;;;;;;20.36;54.56;97240.69;4962665;28;20210;-29
2023/04/20 04:04:21;;;;;;;3.10;2.80;;;;;;;20.33;54.41;97238.94;4940223;28;20701;-29
2023/04/20 04:06:49;;;;;;;2.70;2.40;;;;;;;20.31;54.84;97232.91;4958812;28;20664;-29
2023/04/20 04:09:15;;;;;;;3.03;2.73;;;;;;;20.36;55.12;97245.78;4953017;28;20292;-30
2023/04/20 04:11:42;;;;;;;2.90;2.60;;;;;;;20.31;54.41;97232.91;4952864;28;20288;-29
2023/04/20 04:14:09;;;;;;;3.50;3.20;;;;;;;20.34;54.36;97243.19;4952911;28;20303;-31
2023/04/20 04:16:35;;;;;;;3.33;3.00;;;;;;;20.22;54.95;97222.44;4953930;28;20718;-29
2023/04/20 04:19:02;;;;;;;3.40;3.00;;;;;;;20.34;55.07;97245.75;4952730;28;20201;-30
2023/04/20 04:21:29;;;;;;;3.30;3.00;;;;;;;20.35;54.00;97244.06;4953373;28;20286;-29
2023/04/20 04:23:56;;;;;;;4.03;3.50;;;;;;;19.81;54.98;97151.44;4953998;28;20197;-30
2023/04/20 04:26:23;;;;;;;4.63;3.50;;;;;;;20.35;54.45;97242.41;4948047;28;20228;-29
2023/04/20 04:28:50;;;;;;;3.53;3.23;;;;;;;20.21;54.60;97219.81;4950926;28;20743;-36
2023/04/20 04:31:18;;;;;;;3.37;2.97;;;;;;;20.33;54.80;97232.94;4953688;28;20689;-29
2023/04/20 04:33:45;;;;;;;3.20;2.80;;;;;;;20.34;53.98;97247.47;4953795;28;21042;-29
2023/04/20 04:36:14;;;;;;;4.70;3.43;;;;;;;20.34;54.46;97235.53;4954089;28;20251;-29
2023/04/20 04:38:43;;;;;;;7.30;3.30;;;;;;;20.33;54.56;97235.50;4955403;28;20248;-30
2023/04/20 04:41:13;;;;;;;3.40;3.10;;;;;;;20.33;54.46;97221.06;4956374;28;20632;-29
2023/04/20 04:43:40;;;;;;;3.93;3.10;;;;;;;20.33;54.53;97226.16;4953911;28;20211;-32
2023/04/20 04:46:10;;;;;;;5.47;3.40;;;;;;;20.33;54.50;97230.41;4953671;28;20712;-30
2023/04/20 04:48:36;;;;;;;3.83;3.10;;;;;;;20.33;54.37;97235.50;4953670;28;20640;-30
2023/04/20 04:51:03;;;;;;;4.83;2.93;;;;;;;20.32;54.56;97232.09;4956346;28;20618;-30
2023/04/20 04:53:30;;;;;;;3.87;3.13;;;;;;;20.32;54.47;97232.09;4937015;28;20223;-30
2023/04/20 04:55:56;;;;;;;3.50;3.13;;;;;;;20.27;54.81;97225.09;4953490;28;20192;-29
2023/04/20 04:58:23;;;;;;;6.17;3.37;;;;;;;20.32;54.37;97233.78;4956550;28;20251;-31
2023/04/20 05:00:50;;;;;;;5.10;3.13;;;;;;;20.33;54.51;97232.94;4955454;28;20227;-29
2023/04/20 05:03:17;;;;;;;4.67;3.47;;;;;;;20.33;54.12;97238.94;4956471;28;20208;-29
2023/04/20 05:05:44;;;;;;;3.10;2.80;;;;;;;20.33;54.26;97232.94;4962532;28;20231;-29
2023/04/20 05:08:11;;;;;;;3.83;3.20;;;;;;;20.33;54.45;97243.16;4958000;28;20240;-29
2023/04/20 05:10:37;;;;;;;5.20;4.70;;;;;;;20.33;53.57;97244.03;4955715;29;20224;-29
2023/04/20 05:13:04;;;;;;;8.80;6.60;;;;;;;20.30;52.34;97246.50;4960464;28;20200;-30
2023/04/20 05:15:31;;;;;;;12.07;7.90;;;;;;;20.32;51.29;97249.09;4955103;28;20730;-30
2023/04/20 05:17:57;;;;;;;12.73;8.77;;;;;;;20.27;50.01;97246.41;4955389;28;20259;-29
2023/04/20 05:20:24;;;;;;;10.47;8.90;;;;;;;20.26;49.32;97242.13;4963519;28;20205;-30
2023/04/20 05:22:51;;;;;;;11.97;9.80;;;;;;;20.27;48.97;97242.97;4925240;29;20236;-30
2023/04/20 05:25:17;;;;;;;13.30;11.10;;;;;;;20.29;49.23;97241.34;4960181;28;20229;-29
2023/04/20 05:27:45;;;;;;;15.03;11.77;;;;;;;20.28;48.00;97249.84;4956197;28;20303;-29
2023/04/20 05:30:11;;;;;;;18.97;11.50;;;;;;;20.26;48.12;97242.13;4960338;28;20655;-30
2023/04/20 05:32:46;;;;;;;14.47;12.10;;;;;;;20.18;48.20;97235.91;4955049;28;20207;-29
2023/04/20 05:35:17;;;;;;;14.23;11.70;;;;;;;20.24;47.85;97241.22;4965570;28;20238;-30
2023/04/20 05:37:43;;;;;;;14.93;12.57;;;;;;;20.16;47.63;97229.06;4955727;28;20725;-31
2023/04/20 05:40:11;;;;;;;15.40;12.47;;;;;;;20.23;47.46;97242.03;4954960;28;20197;-29
2023/04/20 05:42:38;;;;;;;14.67;12.43;;;;;;;20.21;46.85;97236.00;4959500;28;20239;-29
2023/04/20 05:45:05;;;;;;;16.03;12.93;;;;;;;20.22;47.42;97237.72;4954626;29;20283;-31
2023/04/20 05:47:31;;;;;;;14.70;12.20;;;;;;;20.17;47.36;97231.66;4959600;28;20640;-32
2023/04/20 05:49:58;;;;;;;17.53;12.80;;;;;;;20.21;47.81;97238.56;4954678;28;20200;-29
2023/04/20 05:52:25;;;;;;;16.93;12.63;;;;;;;20.20;47.25;97236.84;4955951;28;20204;-30
2023/04/20 05:54:51;;;;;;;15.03;12.73;;;;;;;20.17;46.80;97229.09;4955314;28;20224;-29
2023/04/20 05:57:18;;;;;;;15.50;12.50;;;;;;;20.19;46.72;97232.53;4958573;28;20255;-29
2023/04/20 05:59:45;;;;;;;24.13;12.93;;;;;;;20.17;46.97;97230.78;4956577;28;20299;-30
2023/04/20 06:02:12;;;;;;;18.20;12.87;;;;;;;20.08;46.83;97216.03;4956682;28;20787;-30
2023/04/20 06:04:39;;;;;;;17.37;12.40;;;;;;;20.16;48.11;97226.50;4957403;28;20208;-29
2023/04/20 06:07:05;;;;;;;14.80;11.33;;;;;;;20.13;47.56;97228.97;4961806;28;20645;-31
2023/04/20 06:09:32;;;;;;;13.60;11.50;;;;;;;20.17;48.01;97235.88;4958421;28;20293;-30
2023/04/20 06:11:59;;;;;;;16.07;12.33;;;;;;;20.05;47.87;97227.81;4954564;28;20204;-30
2023/04/20 06:14:26;;;;;;;21.87;12.33;;;;;;;20.17;48.84;97252.06;4954251;28;20208;-30
2023/04/20 06:16:52;;;;;;;14.47;11.53;;;;;;;20.16;48.28;97240.09;4956374;28;20311;-30
2023/04/20 06:19:19;;;;;;;14.00;11.50;;;;;;;20.15;48.54;97243.47;4960839;28;20608;-30
2023/04/20 06:21:46;;;;;;;18.97;11.37;;;;;;;20.12;48.51;97234.81;4954546;28;20208;-30
2023/04/20 06:24:12;;;;;;;15.23;11.80;;;;;;;20.16;49.09;97250.31;4954392;28;20258;-29
2023/04/20 06:26:39;;;;;;;17.40;12.30;;;;;;;20.10;49.59;97234.78;4953907;29;20228;-30
2023/04/20 06:29:05;;;;;;;14.63;11.23;;;;;;;20.15;49.28;97240.94;4959105;28;20650;-32
2023/04/20 06:31:32;;;;;;;11.27;9.60;;;;;;;20.17;48.97;97246.97;4964352;28;20212;-30
2023/04/20 06:33:59;;;;;;;11.77;10.20;;;;;;;20.17;50.05;97239.31;4956692;28;20200;-30
2023/04/20 06:36:26;;;;;;;18.93;11.07;;;;;;;20.18;49.86;97242.69;4960760;28;20303;-29
2023/04/20 06:38:53;;;;;;;12.47;9.63;;;;;;;20.18;49.32;97240.16;4964073;28;20291;-29
2023/04/20 06:41:20;;;;;;;11.23;9.23;;;;;;;20.20;50.19;97235.97;4960976;28;20339;-30
2023/04/20 06:43:47;;;;;;;12.77;9.77;;;;;;;20.09;49.46;97211.78;4956741;28;20291;-30
2023/04/20 06:46:13;;;;;;;12.10;9.27;;;;;;;20.20;50.17;97236.84;4947826;28;20236;-30
2023/04/20 06:48:40;;;;;;;11.50;9.50;;;;;;;20.22;50.13;97236.88;4950948;28;20299;-29
2023/04/20 06:51:06;;;;;;;11.23;9.43;;;;;;;20.21;50.45;97230.91;4951215;28;20208;-30
2023/04/20 06:53:33;;;;;;;9.43;8.20;;;;;;;20.23;49.63;97230.97;4953219;28;20220;-31
2023/04/20 06:56:00;;;;;;;10.07;8.90;;;;;;;20.18;50.30;97214.63;4950366;28;20232;-32
2023/04/20 06:58:26;;;;;;;9.10;7.93;;;;;;;20.23;50.59;97228.41;4962960;28;20207;-30
2023/04/20 07:00:53;;;;;;;10.67;8.53;;;;;;;20.22;50.60;97227.53;4954752;28;20311;-32
2023/04/20 07:03:20;;;;;;;8.83;7.90;;;;;;;20.22;50.49;97224.97;4958149;28;20312;-30
2023/04/20 07:05:46;;;;;;;9.70;8.27;;;;;;;20.23;50.75;97220.75;4951782;28;20706;-30
2023/04/20 07:08:14;;;;;;;9.50;8.33;;;;;;;20.23;50.68;97229.28;4952768;28;20811;-30
2023/04/20 07:10:41;;;;;;;10.53;9.37;;;;;;;20.14;48.63;97208.59;4959255;28;20200;-31
2023/04/20 07:13:08;;;;;;;12.87;8.80;;;;;;;20.22;48.80;97221.59;4956373;28;20754;-31
2023/04/20 07:15:34;;;;;;;10.20;8.97;;;;;;;20.02;48.81;97180.97;4954780;28;20200;-29
2023/04/20 07:18:01;;;;;;;9.73;8.73;;;;;;;20.22;49.35;97219.88;4949290;28;20238;-29
2023/04/20 07:20:28;;;;;;;10.60;8.67;;;;;;;20.13;49.11;97198.34;4952009;28;20224;-30
2023/04/20 07:22:54;;;;;;;9.40;8.37;;;;;;;19.79;49.73;97150.53;4947565;28;20787;-29
2023/04/20 07:25:22;;;;;;;11.13;8.33;;;;;;;20.22;49.61;97227.53;4949779;28;20212;-30
2023/04/20 07:27:48;;;;;;;9.03;8.13;;;;;;;20.15;49.87;97207.75;4950322;29;20227;-32
2023/04/20 07:30:15;;;;;;;11.70;8.47;;;;;;;20.23;49.80;97216.53;4943467;28;20218;-32
2023/04/20 07:32:41;;;;;;;9.03;7.80;;;;;;;20.06;50.18;97192.16;4951929;28;20202;-32
2023/04/20 07:35:09;;;;;;;9.30;8.30;;;;;;;20.23;50.13;97220.75;4949689;28;20208;-29
2023/04/20 07:37:35;;;;;;;8.17;7.37;;;;;;;20.18;50.59;97206.97;4956052;28;20711;-33
2023/04/20 07:40:05;;;;;;;10.77;7.30;;;;;;;20.19;50.43;97214.69;4954582;28;20243;-29
2023/04/20 07:42:33;;;;;;;7.90;7.10;;;;;;;20.22;50.46;97216.47;4946341;28;20212;-30
2023/04/20 07:45:00;;;;;;;8.80;7.00;;;;;;;20.22;50.65;97219.88;4957324;28;20659;-30
2023/04/20 07:47:26;;;;;;;7.67;6.87;;;;;;;20.19;50.61;97208.72;4919033;29;20652;-31
2023/04/20 07:49:53;;;;;;;7.83;7.03;;;;;;;20.22;50.46;97209.66;4948375;28;20209;-31
2023/04/20 07:52:19;;;;;;;9.53;7.00;;;;;;;20.20;50.09;97206.22;4950390;28;20214;-30
2023/04/20 07:54:46;;;;;;;7.90;7.10;;;;;;;20.19;50.58;97204.47;4949096;28;20197;-29
2023/04/20 07:57:13;;;;;;;7.10;6.40;;;;;;;20.18;50.85;97201.88;4947499;28;20228;-30
2023/04/20 07:59:40;;;;;;;7.70;6.80;;;;;;;20.24;50.51;97213.13;4949082;28;20207;-30
2023/04/20 08:02:06;;;;;;;7.57;6.87;;;;;;;20.25;50.53;97212.31;4953080;28;20196;-30
2023/04/20 08:04:35;;;;;;;7.60;6.67;;;;;;;20.26;50.54;97210.63;4950398;28;20211;-31
2023/04/20 08:07:02;;;;;;;6.53;5.93;;;;;;;20.26;50.61;97208.09;4952770;28;20320;-29
2023/04/20 08:09:29;;;;;;;7.07;6.37;;;;;;;20.26;50.65;97219.16;4948849;28;20208;-30
2023/04/20 08:11:56;;;;;;;6.43;5.77;;;;;;;20.27;50.37;97209.81;4954844;28;20617;-29
2023/04/20 08:14:23;;;;;;;6.87;6.13;;;;;;;20.27;50.80;97213.22;4954382;28;20655;-29
2023/04/20 08:16:49;;;;;;;7.57;6.20;;;;;;;20.27;50.45;97220.88;4953253;28;20786;-29
2023/04/20 08:19:16;;;;;;;7.00;6.30;;;;;;;20.26;50.70;97213.19;4953644;29;20243;-32
2023/04/20 08:21:42;;;;;;;6.63;5.97;;;;;;;20.26;50.65;97216.59;4942212;28;20295;-30
2023/04/20 08:24:09;;;;;;;7.77;5.60;;;;;;;20.25;50.73;97206.34;4960510;28;20220;-29
2023/04/20 08:26:36;;;;;;;6.87;5.20;;;;;;;20.29;50.63;97218.38;4959241;28;20260;-31
2023/04/20 08:29:02;;;;;;;5.60;5.10;;;;;;;20.29;50.76;97210.72;4953667;28;20216;-30
2023/04/20 08:31:29;;;;;;;6.40;5.70;;;;;;;20.28;50.63;97209.84;4978377;28;20230;-30
2023/04/20 08:33:56;;;;;;;5.67;5.17;;;;;;;20.29;50.67;97214.16;4956236;28;20200;-29
2023/04/20 08:36:22;;;;;;;5.53;5.03;;;;;;;20.26;50.79;97201.31;4936189;29;20304;-31
2023/04/20 08:38:55;;;;;;;5.70;5.20;;;;;;;20.29;50.73;97215.81;4958835;28;20235;-30
2023/04/20 08:41:21;;;;;;;5.33;4.83;;;;;;;20.29;50.73;97208.16;4959241;28;20203;-30
2023/04/20 08:43:49;;;;;;;5.73;5.10;;;;;;;20.29;50.67;97211.59;4955396;28;20279;-30
2023/04/20 08:46:16;;;;;;;6.43;5.07;;;;;;;20.27;50.62;97207.25;4929197;28;20278;-31
2023/04/20 08:48:44;;;;;;;5.57;5.07;;;;;;;20.31;50.34;97214.19;4939099;28;20638;-30
2023/04/20 08:51:11;;;;;;;8.63;4.80;;;;;;;20.31;50.50;97217.59;4936362;29;20205;-29
2023/04/20 08:53:37;;;;;;;5.37;4.87;;;;;;;20.31;51.33;97219.28;4927381;29;20264;-30
2023/04/20 08:56:04;;;;;;;6.80;5.50;;;;;;;20.31;50.49;97220.16;4951634;28;20238;-30
2023/04/20 08:58:31;;;;;;;5.20;4.70;;;;;;;20.28;50.63;97211.56;4950396;28;20291;-31
2023/04/20 09:01:00;;;;;;;5.93;5.00;;;;;;;20.30;50.66;97215.00;4939930;28;20229;-29
2023/04/20 09:03:38;;;;;;;5.10;4.60;;;;;;;20.32;50.69;97223.56;4954158;28;20251;-30
2023/04/20 09:06:05;;;;;;;5.20;4.73;;;;;;;20.32;50.66;97218.47;4952545;28;20231;-30
2023/04/20 09:08:41;;;;;;;4.73;4.23;;;;;;;20.31;50.82;97220.16;4954788;28;20287;-30
2023/04/20 09:11:25;;;;;;;5.13;4.63;;;;;;;20.32;50.91;97218.47;4954935;28;20262;-29
2023/04/20 09:14:09;;;;;;;4.80;4.33;;;;;;;20.33;51.02;97215.09;4950605;28;20228;-32
2023/04/20 09:16:38;;;;;;;4.57;4.13;;;;;;;20.33;50.86;97210.84;4951183;28;20229;-30
2023/04/20 09:19:05;;;;;;;5.17;4.40;;;;;;;20.26;50.88;97187.66;4954955;28;20220;-29
2023/04/20 09:21:34;;;;;;;5.33;4.27;;;;;;;20.33;50.08;97200.66;4955243;28;20231;-31
2023/04/20 09:24:07;;;;;;;4.40;4.00;;;;;;;20.33;50.52;97208.31;4952179;29;20721;-33
2023/04/20 09:26:34;;;;;;;4.30;3.80;;;;;;;20.35;50.68;97208.34;4952422;28;20286;-30
2023/04/20 09:29:03;;;;;;;4.70;4.10;;;;;;;20.22;50.67;97173.94;4957627;28;20197;-31
2023/04/20 09:31:29;;;;;;;6.33;3.90;;;;;;;20.35;50.56;97201.56;4972205;28;20300;-30
2023/04/20 09:34:00;;;;;;;5.57;3.63;;;;;;;20.34;50.13;97189.59;4955703;28;20212;-32
2023/04/20 09:36:37;;;;;;;6.07;3.93;;;;;;;20.35;50.33;97193.91;4954680;28;20227;-30
2023/04/20 09:39:17;;;;;;;3.93;3.60;;;;;;;20.36;50.44;97204.97;4955081;28;20875;-31
2023/04/20 09:41:43;;;;;;;5.37;3.70;;;;;;;20.36;50.52;97207.50;4954239;28;20287;-31
2023/04/20 09:44:10;;;;;;;3.77;3.20;;;;;;;20.36;50.73;97190.53;4951885;28;20209;-31
2023/04/20 09:46:39;;;;;;;4.20;3.80;;;;;;;20.36;50.72;97182.88;4951478;28;20263;-29
2023/04/20 09:49:07;;;;;;;3.80;3.50;;;;;;;20.34;50.62;97160.69;4955454;28;20296;-31
2023/04/20 09:51:38;;;;;;;3.90;3.50;;;;;;;20.37;50.66;97173.53;4961243;28;20580;-30
2023/04/20 09:54:05;;;;;;;4.00;3.60;;;;;;;20.24;50.76;97157.00;4958861;28;20566;-30
2023/04/20 09:56:32;;;;;;;4.47;3.70;;;;;;;20.37;50.89;97178.63;4957053;28;20224;-31
2023/04/20 09:58:59;;;;;;;5.07;3.30;;;;;;;20.34;50.84;97170.91;4959809;28;20270;-30
2023/04/20 10:01:26;;;;;;;3.73;3.30;;;;;;;20.35;50.63;97157.31;4953168;28;20211;-31
2023/04/20 10:03:52;;;;;;;4.00;3.33;;;;;;;20.36;50.77;97154.78;4958020;28;20570;-30
2023/04/20 10:06:24;;;;;;;3.50;3.13;;;;;;;20.33;50.93;97139.41;4936132;28;20215;-31
2023/04/20 10:08:51;;;;;;;4.50;3.57;;;;;;;20.35;50.78;97137.75;4944577;28;20235;-29
2023/04/20 10:11:24;;;;;;;3.70;3.40;;;;;;;20.34;50.89;97155.59;4952204;28;20299;-30
2023/04/20 10:13:58;;;;;;;3.50;3.20;;;;;;;20.31;50.87;97150.41;4952917;28;20291;-32
2023/04/20 10:16:25;;;;;;;4.33;3.73;;;;;;;20.34;50.96;97148.78;4939820;28;20224;-30
2023/04/20 10:19:01;;;;;;;3.80;3.40;;;;;;;20.33;50.95;97153.84;4955646;28;20737;-31
2023/04/20 10:21:31;;;;;;;4.13;3.70;;;;;;;20.34;50.99;97151.31;4951095;28;20208;-34
2023/04/20 10:24:01;;;;;;;3.70;3.10;;;;;;;20.34;51.07;97146.22;4957927;28;20210;-30
2023/04/20 10:26:35;;;;;;;3.57;3.27;;;;;;;20.35;51.01;97147.09;4941982;28;20298;-31
2023/04/20 10:29:02;;;;;;;3.30;3.00;;;;;;;20.31;51.38;97140.19;4951571;28;20207;-29
2023/04/20 10:31:36;;;;;;;4.10;3.40;;;;;;;20.34;50.85;97135.16;4935395;28;20214;-31
2023/04/20 10:34:03;;;;;;;4.47;3.60;;;;;;;20.32;51.00;97141.91;4956341;28;20633;-30
2023/04/20 10:36:36;;;;;;;3.37;3.07;;;;;;;20.32;50.98;97141.91;4962924;28;20232;-30
2023/04/20 10:39:19;;;;;;;4.60;3.30;;;;;;;20.31;51.06;97132.53;4947534;28;20212;-30
2023/04/20 10:42:00;;;;;;;4.33;3.63;;;;;;;20.29;51.00;97112.06;4954900;28;20211;-33
2023/04/20 10:44:26;;;;;;;5.30;3.60;;;;;;;19.90;50.94;97039.50;4952891;28;20290;-31
2023/04/20 10:46:53;;;;;;;3.73;3.30;;;;;;;20.32;51.14;97109.59;4955175;28;20235;-29
2023/04/20 10:49:25;;;;;;;5.33;3.60;;;;;;;20.26;51.00;97094.13;4949491;28;20239;-30
2023/04/20 10:51:52;;;;;;;9.17;3.50;;;;;;;20.28;51.17;97100.13;4933339;28;20235;-35
2023/04/20 10:54:21;;;;;;;8.00;3.70;;;;;;;20.30;51.13;97103.59;4953575;28;20687;-30
2023/04/20 10:56:51;;;;;;;6.47;3.97;;;;;;;20.32;51.14;97108.72;4950721;28;20378;-30
2023/04/20 10:59:22;;;;;;;7.70;3.73;;;;;;;20.31;51.35;97112.13;4953805;28;20204;-29
2023/04/20 11:01:49;;;;;;;8.37;3.80;;;;;;;20.28;51.24;97102.66;4951509;28;20212;-32
2023/04/20 11:04:16;;;;;;;4.93;3.17;;;;;;;20.29;51.33;97103.53;4955626;28;20212;-30
2023/04/20 11:06:46;;;;;;;6.03;3.40;;;;;;;20.19;51.24;97087.09;4938070;28;20720;-30
2023/04/20 11:09:25;;;;;;;5.90;3.50;;;;;;;20.28;51.18;97096.72;4955289;28;20298;-30
2023/04/20 11:12:02;;;;;;;5.53;3.83;;;;;;;20.30;51.18;97111.25;4952748;28;20212;-29
2023/04/20 11:14:41;;;;;;;6.07;3.50;;;;;;;20.29;51.30;97104.41;4951514;28;20223;-30
2023/04/20 11:17:08;;;;;;;7.20;3.57;;;;;;;20.30;51.48;97105.25;4938103;28;20255;-33
2023/04/20 11:19:35;;;;;;;5.07;3.70;;;;;;;20.29;51.32;97096.75;4957618;28;20216;-29
2023/04/20 11:22:02;;;;;;;5.17;3.13;;;;;;;20.24;51.41;97084.69;4952279;28;20644;-30
2023/04/20 11:24:30;;;;;;;6.40;3.10;;;;;;;20.25;51.30;97084.72;4928545;28;20235;-29
2023/04/20 11:26:56;;;;;;;4.73;3.43;;;;;;;20.30;50.89;97087.41;4961333;28;20322;-28
2023/04/20 11:29:26;;;;;;;5.53;3.60;;;;;;;20.29;51.34;97085.69;4952304;28;20250;-29
2023/04/20 11:31:53;;;;;;;5.73;3.33;;;;;;;20.30;51.40;97082.31;4950698;29;20232;-27
2023/04/20 11:34:20;;;;;;;5.00;3.70;;;;;;;20.27;51.24;97070.34;4971039;28;20671;-28